createdAt,value
2019-02-16T00:00:37.108Z,3.14
2019-02-16T00:03:04.131Z,3.28
2019-02-16T00:05:31.038Z,3.27
2019-02-16T00:07:58.073Z,3.24
2019-02-16T00:10:24.999Z,3.15
2019-02-16T00:12:51.936Z,3.13
2019-02-16T00:15:18.842Z,3.14
2019-02-16T00:17:45.807Z,3.17
2019-02-16T00:20:12.724Z,3.17
2019-02-16T00:22:39.671Z,3.14
2019-02-16T00:25:06.592Z,3.16
2019-02-16T00:27:33.590Z,3.15
2019-02-16T00:30:00.545Z,3.18
2019-02-16T00:32:27.445Z,3.20
2019-02-16T00:34:54.372Z,3.20
2019-02-16T00:37:21.276Z,3.20
2019-02-16T00:39:48.216Z,3.17
2019-02-16T00:42:15.120Z,3.17
2019-02-16T00:44:42.042Z,3.12
2019-02-16T00:47:08.931Z,3.16
2019-02-16T00:49:35.889Z,3.10
2019-02-16T00:52:02.803Z,3.06
2019-02-16T00:54:29.719Z,3.02
2019-02-16T00:56:56.623Z,3.01
2019-02-16T00:59:24.394Z,2.97
2019-02-16T01:01:51.312Z,2.91
2019-02-16T01:04:18.279Z,2.83
2019-02-16T01:06:45.189Z,2.78
2019-02-16T01:09:12.124Z,2.79
2019-02-16T01:11:39.025Z,2.70
2019-02-16T01:14:05.990Z,2.71
2019-02-16T01:16:33.203Z,2.68
2019-02-16T01:19:00.149Z,2.69
2019-02-16T01:21:27.057Z,2.67
2019-02-16T01:23:53.996Z,2.63
2019-02-16T01:26:20.970Z,2.62
2019-02-16T01:28:48.067Z,2.67
2019-02-16T01:31:14.938Z,2.68
2019-02-16T01:33:41.841Z,2.65
2019-02-16T01:36:08.782Z,2.54
2019-02-16T01:38:35.695Z,2.45
2019-02-16T01:41:02.610Z,2.43
2019-02-16T01:43:29.499Z,2.36
2019-02-16T01:45:56.455Z,2.34
2019-02-16T01:48:23.375Z,2.26
2019-02-16T01:50:50.318Z,2.25
2019-02-16T01:53:17.229Z,2.26
2019-02-16T01:55:44.221Z,2.09
2019-02-16T01:58:11.143Z,2.10
2019-02-16T02:00:38.095Z,2.00
2019-02-16T02:03:04.996Z,1.99
2019-02-16T02:05:31.952Z,1.95
2019-02-16T02:07:58.840Z,1.85
2019-02-16T02:10:25.945Z,1.83
2019-02-16T02:12:52.848Z,1.81
2019-02-16T02:15:19.794Z,1.79
2019-02-16T02:17:46.736Z,1.74
2019-02-16T02:20:13.675Z,1.75
2019-02-16T02:22:40.573Z,1.69
2019-02-16T02:25:08.876Z,1.64
2019-02-16T02:27:35.785Z,1.63
2019-02-16T02:30:02.822Z,1.60
2019-02-16T02:32:29.733Z,1.55
2019-02-16T02:34:56.682Z,1.57
2019-02-16T02:37:23.636Z,1.54
2019-02-16T02:39:50.614Z,1.67
2019-02-16T02:42:17.530Z,1.60
2019-02-16T02:44:44.621Z,1.51
2019-02-16T02:47:11.513Z,1.54
2019-02-16T02:49:38.444Z,1.51
2019-02-16T02:52:05.456Z,1.49
2019-02-16T02:54:32.352Z,1.57
2019-02-16T02:56:59.310Z,1.49
2019-02-16T02:59:26.220Z,1.48
2019-02-16T03:01:53.159Z,1.47
2019-02-16T03:04:20.031Z,1.49
2019-02-16T03:06:46.983Z,1.51
2019-02-16T03:09:13.897Z,1.51
2019-02-16T03:11:40.813Z,1.47
2019-02-16T03:14:07.685Z,1.50
2019-02-16T03:16:34.585Z,1.38
2019-02-16T03:19:01.518Z,1.47
2019-02-16T03:21:28.440Z,1.46
2019-02-16T03:23:55.342Z,1.46
2019-02-16T03:27:04.387Z,1.45
2019-02-16T03:29:48.910Z,1.40
2019-02-16T03:32:50.668Z,1.30
2019-02-16T03:36:11.321Z,1.22
2019-02-16T03:38:57.925Z,1.24
2019-02-16T03:41:24.841Z,1.28
2019-02-16T03:43:51.721Z,1.23
2019-02-16T03:46:18.653Z,1.19
2019-02-16T03:48:45.541Z,1.17
2019-02-16T03:51:12.470Z,1.18
2019-02-16T03:53:39.361Z,1.15
2019-02-16T03:56:06.238Z,1.17
2019-02-16T03:58:33.148Z,1.22
2019-02-16T04:01:00.028Z,1.23
2019-02-16T04:03:26.978Z,1.14
2019-02-16T04:05:53.846Z,1.07
2019-02-16T04:08:20.777Z,1.12
2019-02-16T04:10:47.660Z,1.04
2019-02-16T04:13:14.584Z,0.96
2019-02-16T04:15:41.672Z,0.96
2019-02-16T04:18:08.614Z,0.92
2019-02-16T04:20:35.520Z,0.95
2019-02-16T04:23:02.453Z,1.03
2019-02-16T04:25:29.334Z,0.91
2019-02-16T04:27:56.267Z,0.95
2019-02-16T04:30:23.151Z,0.87
2019-02-16T04:32:50.083Z,0.97
2019-02-16T04:35:16.962Z,0.88
2019-02-16T04:37:43.878Z,0.78
2019-02-16T04:40:10.755Z,0.82
2019-02-16T04:42:37.704Z,0.83
2019-02-16T04:45:04.613Z,0.82
2019-02-16T04:47:31.521Z,0.76
2019-02-16T04:49:58.403Z,0.70
2019-02-16T04:52:34.344Z,0.70
2019-02-16T04:54:54.091Z,0.69
2019-02-16T04:57:21.239Z,0.77
2019-02-16T04:59:48.358Z,0.77
2019-02-16T05:02:15.272Z,0.74
2019-02-16T05:04:42.155Z,0.72
2019-02-16T05:07:09.066Z,0.70
2019-02-16T05:09:35.937Z,0.72
2019-02-16T05:12:02.840Z,0.74
2019-02-16T05:14:29.980Z,0.65
2019-02-16T05:16:56.905Z,0.68
2019-02-16T05:19:23.842Z,0.71
2019-02-16T05:21:50.758Z,0.65
2019-02-16T05:24:17.757Z,0.60
2019-02-16T05:26:44.663Z,0.59
2019-02-16T05:29:11.606Z,0.56
2019-02-16T05:31:38.501Z,0.56
2019-02-16T05:34:05.418Z,0.57
2019-02-16T05:36:32.323Z,0.58
2019-02-16T05:38:59.249Z,0.57
2019-02-16T05:41:26.152Z,0.57
2019-02-16T05:43:53.088Z,0.56
2019-02-16T05:46:19.981Z,0.54
2019-02-16T05:48:46.900Z,0.60
2019-02-16T05:51:13.963Z,0.56
2019-02-16T05:53:40.900Z,0.51
2019-02-16T05:56:07.801Z,0.51
2019-02-16T05:58:34.721Z,0.44
2019-02-16T06:01:01.655Z,0.47
2019-02-16T06:03:28.750Z,0.49
2019-02-16T06:05:55.740Z,0.45
2019-02-16T06:08:22.652Z,0.49
2019-02-16T06:10:49.542Z,0.44
2019-02-16T06:13:16.479Z,0.45
2019-02-16T06:15:43.651Z,0.53
2019-02-16T06:18:10.704Z,0.37
2019-02-16T06:20:37.629Z,0.31
2019-02-16T06:23:04.981Z,0.33
2019-02-16T06:25:32.011Z,0.40
2019-02-16T06:27:58.902Z,0.42
2019-02-16T06:30:26.471Z,0.50
2019-02-16T06:32:53.360Z,0.48
2019-02-16T06:35:26.816Z,0.40
2019-02-16T06:37:53.704Z,0.31
2019-02-16T06:40:20.625Z,0.22
2019-02-16T06:42:47.505Z,0.20
2019-02-16T06:45:14.426Z,0.17
2019-02-16T06:47:41.320Z,0.21
2019-02-16T06:50:08.232Z,0.28
2019-02-16T06:52:35.124Z,0.31
2019-02-16T06:55:02.059Z,0.29
2019-02-16T06:57:32.901Z,0.27
2019-02-16T06:59:59.811Z,0.39
2019-02-16T07:02:28.816Z,0.40
2019-02-16T07:04:55.743Z,0.48
2019-02-16T07:07:22.621Z,0.50
2019-02-16T07:09:49.532Z,0.45
2019-02-16T07:12:16.470Z,0.49
2019-02-16T07:14:43.422Z,0.53
2019-02-16T07:17:32.735Z,0.57
2019-02-16T07:20:00.027Z,0.56
2019-02-16T07:22:26.892Z,0.54
2019-02-16T07:24:53.868Z,0.54
2019-02-16T07:27:20.753Z,0.50
2019-02-16T07:29:47.675Z,0.54
2019-02-16T07:32:14.559Z,0.58
2019-02-16T07:34:41.484Z,0.62
2019-02-16T07:37:08.368Z,0.65
2019-02-16T07:39:35.303Z,0.78
2019-02-16T07:42:02.523Z,0.82
2019-02-16T07:44:47.979Z,0.91
2019-02-16T07:47:32.902Z,0.98
2019-02-16T07:50:08.432Z,1.03
2019-02-16T07:52:53.535Z,1.14
2019-02-16T07:55:27.255Z,1.23
2019-02-16T07:58:12.303Z,1.32
2019-02-16T08:00:50.076Z,1.45
2019-02-16T08:03:35.337Z,1.67
2019-02-16T08:06:12.839Z,1.80
2019-02-16T08:08:58.064Z,2.03
2019-02-16T08:11:38.167Z,2.21
2019-02-16T08:14:24.167Z,2.40
2019-02-16T08:16:59.194Z,2.61
2019-02-16T08:19:51.606Z,2.83
2019-02-16T08:22:35.696Z,2.94
2019-02-16T08:25:31.094Z,3.10
2019-02-16T08:28:16.750Z,3.23
2019-02-16T08:31:01.546Z,3.44
2019-02-16T08:34:03.200Z,3.77
2019-02-16T08:36:45.955Z,4.08
2019-02-16T08:39:20.098Z,4.24
2019-02-16T08:42:05.012Z,4.34
2019-02-16T08:44:45.054Z,4.33
2019-02-16T08:47:20.400Z,4.63
2019-02-16T08:50:06.663Z,4.82
2019-02-16T08:53:08.390Z,5.31
2019-02-16T08:55:57.730Z,5.40
2019-02-16T08:58:38.673Z,5.69
2019-02-16T09:01:31.240Z,5.67
2019-02-16T09:04:16.144Z,5.62
2019-02-16T09:07:01.114Z,5.84
2019-02-16T09:10:03.029Z,5.98
2019-02-16T09:12:44.227Z,6.27
2019-02-16T09:15:33.627Z,6.59
2019-02-16T09:18:22.744Z,6.74
2019-02-16T09:21:14.506Z,6.90
2019-02-16T09:24:03.816Z,7.22
2019-02-16T09:26:59.177Z,7.50
2019-02-16T09:29:35.116Z,7.50
2019-02-16T09:32:20.061Z,7.38
2019-02-16T09:34:57.970Z,7.45
2019-02-16T09:37:46.744Z,7.74
2019-02-16T09:40:32.099Z,7.79
2019-02-16T09:43:21.246Z,8.07
2019-02-16T09:46:10.636Z,8.16
2019-02-16T09:48:56.964Z,8.39
2019-02-16T09:51:31.465Z,8.48
2019-02-16T09:54:11.002Z,8.76
2019-02-16T09:56:55.588Z,8.88
2019-02-16T09:59:31.865Z,9.22
2019-02-16T10:02:16.791Z,9.42
2019-02-16T10:04:52.544Z,9.73
2019-02-16T10:07:36.320Z,9.61
2019-02-16T10:10:23.206Z,9.73
2019-02-16T10:13:15.341Z,9.86
2019-02-16T10:16:01.864Z,10.05
2019-02-16T10:18:44.902Z,10.21
2019-02-16T10:21:37.203Z,10.45
2019-02-16T10:24:23.765Z,10.52
2019-02-16T10:27:06.550Z,10.74
2019-02-16T10:29:57.036Z,10.78
2019-02-16T10:32:47.247Z,10.83
2019-02-16T10:35:25.150Z,11.23
2019-02-16T10:38:09.303Z,11.30
2019-02-16T10:41:07.975Z,11.48
2019-02-16T10:43:47.013Z,11.66
2019-02-16T10:46:32.021Z,11.51
2019-02-16T10:49:20.442Z,11.54
2019-02-16T10:52:05.661Z,11.87
2019-02-16T10:54:54.502Z,12.02
2019-02-16T10:57:56.215Z,12.24
2019-02-16T11:00:32.739Z,12.27
2019-02-16T11:03:19.313Z,12.41
2019-02-16T11:06:04.754Z,12.67
2019-02-16T11:08:38.091Z,12.85
2019-02-16T11:11:23.245Z,12.77
2019-02-16T11:14:08.193Z,12.94
2019-02-16T11:17:06.601Z,12.98
2019-02-16T11:19:46.046Z,13.12
2019-02-16T11:22:39.928Z,13.24
2019-02-16T11:25:24.993Z,13.37
2019-02-16T11:28:02.491Z,13.69
2019-02-16T11:30:47.766Z,13.45
2019-02-16T11:33:25.444Z,14.00
2019-02-16T11:36:02.012Z,14.33
2019-02-16T11:38:39.405Z,14.09
2019-02-16T11:41:18.936Z,14.06
2019-02-16T11:44:10.740Z,14.17
2019-02-16T11:47:03.043Z,14.24
2019-02-16T11:49:44.510Z,14.35
2019-02-16T11:52:29.396Z,14.31
2019-02-16T11:55:21.423Z,14.67
2019-02-16T11:58:16.825Z,14.50
2019-02-16T12:01:02.023Z,14.67
2019-02-16T12:03:48.599Z,14.55
2019-02-16T12:06:38.462Z,14.83
2019-02-16T12:09:23.825Z,14.78
2019-02-16T12:12:12.959Z,14.82
2019-02-16T12:14:58.268Z,15.04
2019-02-16T12:17:54.228Z,14.99
2019-02-16T12:20:46.871Z,14.77
2019-02-16T12:23:23.729Z,15.27
2019-02-16T12:26:04.628Z,14.97
2019-02-16T12:29:00.010Z,15.10
2019-02-16T12:31:49.338Z,14.99
2019-02-16T12:34:35.939Z,14.96
2019-02-16T12:37:11.649Z,15.32
2019-02-16T12:40:13.556Z,15.62
2019-02-16T12:42:50.384Z,15.69
2019-02-16T12:45:35.579Z,15.73
2019-02-16T12:48:22.106Z,15.85
2019-02-16T12:51:14.720Z,15.93
2019-02-16T12:53:53.839Z,16.22
2019-02-16T12:56:42.006Z,16.36
2019-02-16T12:59:23.797Z,16.11
2019-02-16T13:02:16.888Z,15.84
2019-02-16T13:04:54.578Z,15.98
2019-02-16T13:07:32.609Z,16.15
2019-02-16T13:10:19.167Z,16.00
2019-02-16T13:13:23.894Z,16.26
2019-02-16T13:16:01.909Z,15.88
2019-02-16T13:18:36.099Z,16.00
2019-02-16T13:21:18.130Z,16.26
2019-02-16T13:24:20.223Z,16.21
2019-02-16T13:27:15.554Z,16.02
2019-02-16T13:30:11.023Z,16.16
2019-02-16T13:33:08.234Z,15.98
2019-02-16T13:35:40.141Z,16.65
2019-02-16T13:38:15.691Z,16.68
2019-02-16T13:41:02.638Z,16.67
2019-02-16T13:43:51.998Z,16.44
2019-02-16T13:46:37.371Z,16.53
2019-02-16T13:49:17.783Z,16.63
2019-02-16T13:51:57.972Z,16.70
2019-02-16T13:54:59.596Z,16.42
2019-02-16T13:57:48.798Z,16.31
2019-02-16T14:00:21.889Z,16.83
2019-02-16T14:03:17.257Z,16.75
2019-02-16T14:06:05.958Z,16.44
2019-02-16T14:08:58.087Z,16.66
2019-02-16T14:11:41.212Z,16.64
2019-02-16T14:14:27.803Z,16.62
2019-02-16T14:17:03.739Z,16.36
2019-02-16T14:19:30.824Z,16.29
2019-02-16T14:21:57.786Z,16.29
2019-02-16T14:24:40.243Z,16.46
2019-02-16T14:27:07.189Z,16.77
2019-02-16T14:29:34.117Z,16.67
2019-02-16T14:32:03.095Z,16.51
2019-02-16T14:34:29.859Z,16.57
2019-02-16T14:36:56.801Z,16.45
2019-02-16T14:39:31.043Z,16.28
2019-02-16T14:41:57.987Z,16.22
2019-02-16T14:44:24.944Z,16.28
2019-02-16T14:46:51.880Z,16.22
2019-02-16T14:49:18.789Z,16.09
2019-02-16T14:51:45.739Z,16.03
2019-02-16T14:54:12.654Z,16.11
2019-02-16T14:56:39.589Z,15.95
2019-02-16T14:59:06.535Z,15.86
2019-02-16T15:01:33.552Z,16.01
2019-02-16T15:04:00.523Z,15.67
2019-02-16T15:06:27.563Z,15.62
2019-02-16T15:08:54.486Z,15.66
2019-02-16T15:11:21.402Z,15.89
2019-02-16T15:13:48.375Z,15.72
2019-02-16T15:16:15.294Z,15.67
2019-02-16T15:18:42.292Z,15.38
2019-02-16T15:21:09.202Z,15.34
2019-02-16T15:23:36.183Z,15.34
2019-02-16T15:26:03.203Z,15.23
2019-02-16T15:28:30.151Z,15.09
2019-02-16T15:30:57.053Z,15.32
2019-02-16T15:33:24.012Z,15.27
2019-02-16T15:35:50.925Z,15.19
2019-02-16T15:38:17.873Z,15.14
2019-02-16T15:40:44.798Z,15.06
2019-02-16T15:43:11.729Z,15.07
2019-02-16T15:45:38.746Z,14.99
2019-02-16T15:48:05.684Z,14.79
2019-02-16T15:50:32.612Z,14.88
2019-02-16T15:52:59.544Z,14.59
2019-02-16T15:55:26.453Z,14.73
2019-02-16T15:57:53.398Z,14.50
2019-02-16T16:00:22.987Z,14.48
2019-02-16T16:02:49.955Z,14.41
2019-02-16T16:05:16.866Z,14.40
2019-02-16T16:07:46.832Z,14.20
2019-02-16T16:10:28.910Z,14.21
2019-02-16T16:13:06.652Z,14.06
2019-02-16T16:15:52.402Z,13.95
2019-02-16T16:18:29.255Z,13.68
2019-02-16T16:21:14.491Z,13.54
2019-02-16T16:24:01.307Z,13.19
2019-02-16T16:26:44.484Z,13.06
2019-02-16T16:29:36.849Z,12.90
2019-02-16T16:32:27.064Z,12.64
2019-02-16T16:35:13.571Z,12.34
2019-02-16T16:37:59.214Z,12.20
2019-02-16T16:41:04.126Z,12.05
2019-02-16T16:43:53.725Z,11.78
2019-02-16T16:46:38.798Z,11.53
2019-02-16T16:49:34.410Z,11.47
2019-02-16T16:52:23.759Z,11.49
2019-02-16T16:54:58.452Z,11.39
2019-02-16T16:57:31.731Z,11.13
2019-02-16T17:00:18.297Z,10.94
2019-02-16T17:03:03.725Z,10.80
2019-02-16T17:05:53.083Z,10.66
2019-02-16T17:08:47.036Z,10.51
2019-02-16T17:11:32.325Z,10.51
2019-02-16T17:14:21.782Z,10.44
2019-02-16T17:17:16.891Z,10.36
2019-02-16T17:19:50.518Z,10.29
2019-02-16T17:22:42.899Z,10.17
2019-02-16T17:25:28.366Z,10.11
2019-02-16T17:28:21.257Z,9.98
2019-02-16T17:31:25.963Z,9.82
2019-02-16T17:34:11.431Z,9.77
2019-02-16T17:37:00.855Z,9.73
2019-02-16T17:39:38.412Z,9.60
2019-02-16T17:42:27.758Z,9.43
2019-02-16T17:45:14.377Z,9.29
2019-02-16T17:48:00.231Z,9.16
2019-02-16T17:50:45.763Z,9.06
2019-02-16T17:53:26.752Z,9.04
2019-02-16T17:56:05.143Z,8.95
2019-02-16T17:58:43.282Z,8.73
2019-02-16T18:01:35.833Z,8.77
2019-02-16T18:04:21.123Z,8.65
2019-02-16T18:07:16.261Z,8.57
2019-02-16T18:10:10.046Z,8.50
2019-02-16T18:12:57.026Z,8.38
2019-02-16T18:15:43.801Z,8.34
2019-02-16T18:18:19.372Z,8.01
2019-02-16T18:21:05.938Z,8.01
2019-02-16T18:23:47.051Z,8.09
2019-02-16T18:26:36.620Z,8.14
2019-02-16T18:29:21.874Z,8.16
2019-02-16T18:32:02.208Z,8.15
2019-02-16T18:34:40.536Z,8.14
2019-02-16T18:37:16.952Z,8.11
2019-02-16T18:40:08.154Z,8.08
2019-02-16T18:42:52.113Z,8.01
2019-02-16T18:45:31.685Z,7.94
2019-02-16T18:48:17.034Z,7.95
2019-02-16T18:51:12.389Z,7.86
2019-02-16T18:54:01.694Z,7.79
2019-02-16T18:56:48.297Z,7.72
2019-02-16T18:59:43.649Z,7.68
2019-02-16T19:02:36.006Z,7.76
2019-02-16T19:05:19.651Z,7.68
2019-02-16T19:07:54.799Z,7.18
2019-02-16T19:10:31.051Z,7.16
2019-02-16T19:13:20.155Z,7.07
2019-02-16T19:16:00.273Z,7.05
2019-02-16T19:18:40.358Z,7.07
2019-02-16T19:21:23.146Z,7.03
2019-02-16T19:24:07.081Z,6.99
2019-02-16T19:26:46.946Z,7.00
2019-02-16T19:29:33.564Z,6.96
2019-02-16T19:32:08.481Z,6.95
2019-02-16T19:34:41.567Z,6.86
2019-02-16T19:37:17.213Z,6.82
2019-02-16T19:39:53.756Z,6.74
2019-02-16T19:42:39.007Z,6.70
2019-02-16T19:45:24.467Z,6.66
2019-02-16T19:48:08.720Z,6.64
2019-02-16T19:51:01.609Z,6.60
2019-02-16T19:53:41.581Z,6.72
2019-02-16T19:56:30.264Z,6.53
2019-02-16T19:59:19.731Z,6.25
2019-02-16T20:02:05.180Z,5.93
2019-02-16T20:05:00.391Z,5.83
2019-02-16T20:07:45.078Z,5.78
2019-02-16T20:10:30.636Z,5.90
2019-02-16T20:13:16.234Z,5.89
2019-02-16T20:15:51.547Z,5.84
2019-02-16T20:18:38.206Z,5.57
2019-02-16T20:21:15.805Z,5.47
2019-02-16T20:24:02.591Z,5.48
2019-02-16T20:26:46.272Z,5.47
2019-02-16T20:29:21.352Z,5.47
2019-02-16T20:32:20.056Z,5.44
2019-02-16T20:35:11.363Z,5.43
2019-02-16T20:38:03.761Z,5.43
2019-02-16T20:41:05.387Z,5.47
2019-02-16T20:43:45.531Z,5.50
2019-02-16T20:46:27.484Z,5.39
2019-02-16T20:49:05.550Z,5.27
2019-02-16T20:51:41.776Z,5.26
2019-02-16T20:54:34.542Z,5.23
2019-02-16T20:57:27.154Z,5.21
2019-02-16T21:00:26.184Z,5.23
2019-02-16T21:03:16.498Z,5.15
2019-02-16T21:06:03.037Z,4.73
2019-02-16T21:08:39.301Z,4.77
2019-02-16T21:11:24.784Z,4.82
2019-02-16T21:14:11.361Z,4.90
2019-02-16T21:16:56.700Z,4.88
2019-02-16T21:19:39.633Z,4.81
2019-02-16T21:22:24.489Z,4.77
2019-02-16T21:25:06.993Z,4.87
2019-02-16T21:27:58.049Z,4.71
2019-02-16T21:30:45.661Z,4.59
2019-02-16T21:33:23.451Z,4.58
2019-02-16T21:36:08.863Z,4.48
2019-02-16T21:38:47.114Z,4.21
2019-02-16T21:41:28.600Z,4.23
2019-02-16T21:44:02.947Z,4.31
2019-02-16T21:46:55.495Z,4.39
2019-02-16T21:49:29.982Z,4.37
2019-02-16T21:52:19.035Z,4.37
2019-02-16T21:55:08.627Z,4.32
2019-02-16T21:58:10.359Z,4.34
2019-02-16T22:00:59.685Z,4.34
2019-02-16T22:03:49.055Z,4.21
2019-02-16T22:06:35.560Z,4.09
2019-02-16T22:09:21.406Z,3.86
2019-02-16T22:12:00.249Z,3.83
2019-02-16T22:14:27.178Z,3.86
2019-02-16T22:16:54.062Z,3.94
2019-02-16T22:19:21.021Z,3.98
2019-02-16T22:21:47.935Z,3.96
2019-02-16T22:24:14.869Z,3.91
2019-02-16T22:26:41.804Z,3.95
2019-02-16T22:29:08.723Z,3.97
2019-02-16T22:31:35.633Z,3.93
2019-02-16T22:34:02.640Z,3.99
2019-02-16T22:36:29.535Z,3.77
2019-02-16T22:38:56.777Z,3.64
2019-02-16T22:41:23.681Z,3.60
2019-02-16T22:43:50.622Z,3.47
2019-02-16T22:46:17.532Z,3.49
2019-02-16T22:48:44.435Z,3.53
2019-02-16T22:51:11.364Z,3.65
2019-02-16T22:53:38.254Z,3.67
2019-02-16T22:56:05.247Z,3.30
2019-02-16T22:58:32.151Z,3.10
2019-02-16T23:00:59.476Z,3.07
2019-02-16T23:03:26.393Z,3.09
2019-02-16T23:05:53.321Z,3.20
2019-02-16T23:08:20.203Z,3.30
2019-02-16T23:10:47.120Z,2.99
2019-02-16T23:13:14.014Z,2.96
2019-02-16T23:15:40.975Z,2.94
2019-02-16T23:18:07.890Z,3.03
2019-02-16T23:20:34.894Z,3.08
2019-02-16T23:23:01.782Z,3.10
2019-02-16T23:25:28.683Z,2.97
2019-02-16T23:27:55.580Z,2.86
2019-02-16T23:30:22.543Z,2.79
2019-02-16T23:32:49.446Z,2.83
2019-02-16T23:35:16.369Z,2.74
2019-02-16T23:37:43.243Z,2.75
2019-02-16T23:40:10.186Z,2.82
2019-02-16T23:42:37.091Z,2.89
2019-02-16T23:45:04.357Z,2.87
2019-02-16T23:47:31.272Z,2.94
2019-02-16T23:49:58.209Z,2.96
2019-02-16T23:52:25.265Z,2.87
2019-02-16T23:54:52.168Z,2.87
2019-02-16T23:57:19.050Z,2.75
2019-02-16T23:59:45.952Z,2.77
